Time;durP1;ratioP1;P1;durP2;ratioP2;P2;SDS_P1;SDS_P2;PMS_P1;PMS_P2;Temp;Humidity;BMP_temperature;BMP_pressure;BME280_temperature;BME280_humidity;BME280_pressure;Samples;Min_cycle;Max_cycle;Signal;HPM_P1;HPM_P2
2022/02/11 00:00:50;;;;;;;;;14.50;14.50;;;;;6.46;68.85;101926.94;5077621;28;45838;-60
2022/02/11 00:08:29;;;;;;;;;17.00;10.50;;;;;6.37;68.89;101936.88;5077403;28;45872;-60
2022/02/11 00:10:55;;;;;;;;;17.75;15.00;;;;;6.37;68.74;101939.50;5077559;28;45490;-60
2022/02/11 00:13:23;;;;;;;;;14.00;14.00;;;;;6.32;68.75;101943.25;5077817;28;45452;-61
2022/02/11 00:15:52;;;;;;;;;15.50;14.00;;;;;6.30;68.70;101943.34;5077481;28;45446;-60
2022/02/11 00:18:17;;;;;;;;;13.75;11.50;;;;;6.26;68.85;101944.41;5077326;28;45221;-60
2022/02/11 00:20:45;;;;;;;;;16.25;15.75;;;;;6.23;68.81;101941.94;5077421;28;45236;-60
2022/02/11 00:23:11;;;;;;;;;17.25;14.75;;;;;6.22;68.91;101950.69;5077636;28;45508;-60
2022/02/11 00:25:40;;;;;;;;;21.25;16.25;;;;;6.18;68.97;101944.75;5076413;28;63415;-61
2022/02/11 00:33:22;;;;;;;;;23.00;18.75;;;;;6.11;68.91;101951.19;5077277;28;45228;-61
2022/02/11 00:35:56;;;;;;;;;19.75;16.50;;;;;6.08;69.17;101939.13;5077215;28;45253;-60
2022/02/11 00:38:32;;;;;;;;;21.50;16.75;;;;;6.04;69.02;101948.03;5076892;28;45378;-60
2022/02/11 01:04:23;;;;;;;;;26.75;22.75;;;;;5.80;68.82;101973.44;5077160;28;45361;-60
2022/02/11 01:06:48;;;;;;;;;20.75;18.00;;;;;5.79;69.01;101975.22;5075775;28;67159;-60
2022/02/11 01:09:14;;;;;;;;;27.75;23.00;;;;;5.75;69.00;101976.28;5075427;28;70956;-60
2022/02/11 01:11:49;;;;;;;;;26.50;21.25;;;;;5.75;68.95;101981.50;5075818;28;45248;-60
2022/02/11 01:14:15;;;;;;;;;20.25;18.00;;;;;5.73;68.97;101975.50;5076771;28;45381;-60
2022/02/11 01:16:46;;;;;;;;;22.75;20.00;;;;;5.70;69.10;101973.03;5076428;28;45402;-60
2022/02/11 01:19:30;;;;;;;;;27.00;21.25;;;;;5.70;68.99;101974.78;5075728;28;45438;-60
2022/02/11 01:22:10;;;;;;;;;29.00;21.75;;;;;5.67;68.91;101983.59;5076548;28;45754;-60
2022/02/11 01:52:13;;;;;;;;;25.25;22.25;;;;;5.44;69.31;102000.25;5075998;28;45264;-60
2022/02/11 01:54:55;;;;;;;;;31.25;25.00;;;;;5.43;68.99;102004.59;5075839;28;45350;-60
2022/02/11 02:05:31;;;;;;;;;24.75;20.50;;;;;5.35;69.28;102011.91;5074652;28;45437;-60
2022/02/11 02:24:03;;;;;;;;;30.00;25.50;;;;;5.17;68.94;102037.84;5078963;28;45967;-60
2022/02/11 02:29:52;;;;;;;;;28.50;23.75;;;;;5.12;68.68;102036.31;5079072;28;45378;-60
2022/02/11 02:37:35;;;;;;;;;24.50;20.25;;;;;5.04;69.14;102034.88;5078888;28;46001;-60
2022/02/11 02:59:16;;;;;;;;;21.50;20.50;;;;;4.97;69.11;102056.91;5061282;28;45309;-60
2022/02/11 03:01:51;;;;;;;;;21.25;19.75;;;;;4.99;68.92;102052.47;5078689;28;45374;-60
2022/02/11 03:15:53;;;;;;;;;24.25;20.00;;;;;5.05;68.94;102069.59;5078504;28;45231;-60
2022/02/11 03:34:54;;;;;;;;;33.00;20.50;;;;;4.97;68.91;102080.34;5078182;28;45453;-61
2022/02/11 04:56:05;;;;;;;;;20.75;20.75;;;;;4.63;68.68;102177.16;5076774;28;45756;-60
2022/02/11 05:01:15;;;;;;;;;21.75;20.00;;;;;4.59;68.80;102179.00;5076917;28;45419;-60
2022/02/11 05:03:41;;;;;;;;;20.00;17.50;;;;;4.57;68.79;102181.66;5076666;28;45375;-60
2022/02/11 05:06:06;;;;;;;;;28.25;21.50;;;;;4.55;68.80;102186.09;5076381;28;51693;-60
2022/02/11 05:08:31;;;;;;;;;25.00;19.75;;;;;4.55;68.94;102193.03;5075596;28;66693;-61
2022/02/11 05:10:57;;;;;;;;;23.00;15.75;;;;;4.54;68.56;102196.53;5074340;28;65782;-60
2022/02/11 05:13:23;;;;;;;;;22.00;17.50;;;;;4.51;68.92;102197.50;5075965;28;61140;-60
2022/02/11 05:15:48;;;;;;;;;23.00;19.25;;;;;4.49;68.49;102206.28;5058187;28;46902;-59
2022/02/11 05:18:13;;;;;;;;;23.00;18.25;;;;;4.47;68.53;102208.09;5075980;28;56986;-60
2022/02/11 05:20:39;;;;;;;;;23.00;19.75;;;;;4.42;68.37;102208.25;5075693;28;65469;-60
2022/02/11 05:23:08;;;;;;;;;21.25;19.00;;;;;4.41;68.38;102216.97;5075139;28;45672;-60
2022/02/11 05:25:34;;;;;;;;;24.00;17.25;;;;;4.40;68.77;102220.47;5076397;28;46355;-60
2022/02/11 05:27:59;;;;;;;;;25.75;20.50;;;;;4.40;69.10;102220.47;5076343;28;45835;-60
2022/02/11 05:30:25;;;;;;;;;19.75;18.00;;;;;4.40;68.73;102225.66;5075361;28;45799;-60
2022/02/11 05:32:50;;;;;;;;;21.50;18.50;;;;;4.41;68.74;102222.16;5076356;28;45307;-60
2022/02/11 05:35:16;;;;;;;;;23.00;21.25;;;;;4.39;68.92;102224.84;5075293;28;70251;-61
2022/02/11 05:37:41;;;;;;;;;36.75;29.50;;;;;4.42;69.04;102234.28;5075440;28;68606;-61
2022/02/11 05:40:07;;;;;;;;;46.25;36.75;;;;;4.43;68.79;102238.56;5075643;28;58840;-61
2022/02/11 05:42:32;;;;;;;;;52.00;40.00;;;;;4.42;69.05;102242.06;5077282;28;45536;-59
2022/02/11 05:44:58;;;;;;;;;36.75;29.50;;;;;4.42;69.04;102242.06;5079595;28;46161;-59
2022/02/11 05:47:23;;;;;;;;;41.00;34.00;;;;;4.43;68.88;102247.25;5078704;28;70509;-59
2022/02/11 05:49:49;;;;;;;;;38.00;33.75;;;;;4.43;68.77;102251.59;5079691;28;45191;-59
2022/02/11 05:52:14;;;;;;;;;38.25;29.00;;;;;4.43;68.97;102256.78;5078830;28;62061;-58
2022/02/11 05:54:40;;;;;;;;;37.25;27.75;;;;;4.42;68.73;102255.97;5079384;28;50243;-61
2022/02/11 05:57:05;;;;;;;;;29.25;26.75;;;;;4.41;68.70;102256.88;5078793;28;61370;-59
2022/02/11 05:59:30;;;;;;;;;27.00;20.50;;;;;4.41;68.41;102267.28;5079508;28;45287;-59
2022/02/11 06:01:56;;;;;;;;;25.50;22.25;;;;;4.40;68.50;102270.78;5079094;28;49794;-60
2022/02/11 06:04:24;;;;;;;;;21.25;19.00;;;;;4.39;68.34;102266.47;5078602;28;62970;-59
2022/02/11 06:06:50;;;;;;;;;23.75;20.25;;;;;4.37;68.29;102273.47;5079052;28;45936;-59
2022/02/11 06:09:15;;;;;;;;;26.50;19.00;;;;;4.37;68.36;102283.03;5079252;28;45384;-59
2022/02/11 06:11:40;;;;;;;;;19.50;16.25;;;;;4.36;68.22;102281.31;5079211;28;45352;-60
2022/02/11 06:14:06;;;;;;;;;19.00;18.50;;;;;4.33;67.92;102287.50;5077645;28;61036;-59
2022/02/11 06:16:32;;;;;;;;;24.50;17.75;;;;;4.30;68.19;102287.59;5078247;28;45727;-59
2022/02/11 06:18:57;;;;;;;;;23.25;18.75;;;;;4.27;67.96;102288.53;5079264;28;45473;-59
2022/02/11 06:21:23;;;;;;;;;19.50;19.50;;;;;4.26;67.99;102294.66;5079387;28;45570;-58
2022/02/11 06:23:55;;;;;;;;;23.50;19.00;;;;;4.24;67.71;102286.03;5079086;28;45500;-59
2022/02/11 06:26:20;;;;;;;;;21.00;17.50;;;;;4.20;67.60;102291.41;5078997;28;45722;-59
2022/02/11 06:28:46;;;;;;;;;23.25;21.25;;;;;4.19;67.83;102294.91;5078911;28;45314;-59
2022/02/11 06:31:11;;;;;;;;;20.50;18.75;;;;;4.14;67.72;102295.91;5077954;28;69313;-58
2022/02/11 06:33:36;;;;;;;;;23.00;17.50;;;;;4.12;67.58;102300.31;5078320;28;63086;-59
2022/02/11 06:36:02;;;;;;;;;20.25;18.50;;;;;4.09;67.98;102313.41;5078886;28;45234;-59
2022/02/11 06:38:27;;;;;;;;;21.75;17.75;;;;;4.07;67.54;102309.19;5079248;28;45689;-59
2022/02/11 06:40:53;;;;;;;;;19.75;16.50;;;;;4.05;67.91;102310.97;5078707;28;45205;-60
2022/02/11 06:43:18;;;;;;;;;24.50;21.50;;;;;4.02;67.67;102306.72;5077678;28;46152;-62
2022/02/11 06:45:43;;;;;;;;;20.00;16.00;;;;;3.99;68.04;102317.22;5078540;28;45346;-58
2022/02/11 06:48:09;;;;;;;;;20.25;19.50;;;;;3.94;67.82;102322.56;5078040;28;59437;-60
2022/02/11 06:50:34;;;;;;;;;18.25;17.25;;;;;3.92;67.76;102326.97;5078610;28;45318;-61
2022/02/11 06:53:00;;;;;;;;;24.25;17.75;;;;;3.90;67.74;102340.94;5077931;28;45915;-61
2022/02/11 06:55:25;;;;;;;;;20.00;18.00;;;;;3.86;67.99;102342.75;5078790;28;45422;-61
2022/02/11 06:57:51;;;;;;;;;24.75;20.25;;;;;3.83;68.05;102345.47;5077870;28;45364;-60
2022/02/11 07:00:17;;;;;;;;;20.25;17.50;;;;;3.78;68.00;102350.81;5077251;28;45646;-60
2022/02/11 07:02:43;;;;;;;;;22.25;19.25;;;;;3.77;68.29;102346.50;5078369;28;46239;-60
2022/02/11 07:05:09;;;;;;;;;26.25;20.50;;;;;3.75;68.04;102352.63;5078489;28;45332;-61
2022/02/11 07:07:34;;;;;;;;;30.75;24.50;;;;;3.75;68.00;102363.03;5078378;28;45402;-61
2022/02/11 07:09:59;;;;;;;;;28.00;22.25;;;;;3.72;68.09;102362.22;5078400;28;45453;-61
2022/02/11 07:12:25;;;;;;;;;31.25;22.25;;;;;3.71;68.40;102370.94;5077309;28;73141;-60
2022/02/11 07:14:50;;;;;;;;;33.75;27.25;;;;;3.70;68.40;102366.66;5078182;28;45324;-60
2022/02/11 07:17:16;;;;;;;;;28.50;24.00;;;;;3.69;68.34;102367.56;5077443;28;64343;-61
2022/02/11 07:19:41;;;;;;;;;32.25;25.25;;;;;3.68;68.44;102376.25;5077214;28;67610;-61
2022/02/11 07:22:06;;;;;;;;;30.25;23.00;;;;;3.66;68.12;102370.25;5077978;28;45279;-59
2022/02/11 07:24:32;;;;;;;;;28.75;22.00;;;;;3.66;68.11;102384.97;5077181;28;64765;-61
2022/02/11 07:26:58;;;;;;;;;22.25;20.50;;;;;3.62;68.31;102394.63;5078018;28;45514;-61
2022/02/11 07:29:23;;;;;;;;;28.25;23.50;;;;;3.59;68.45;102399.91;5078007;28;45515;-59
2022/02/11 07:31:49;;;;;;;;;50.00;39.25;;;;;3.55;68.30;102395.69;5076769;28;68467;-58
2022/02/11 07:34:14;;;;;;;;;41.50;31.25;;;;;3.50;68.30;102398.41;5076942;28;66221;-58
2022/02/11 07:36:39;;;;;;;;;36.50;30.75;;;;;3.46;68.26;102407.19;5076893;28;64562;-60
2022/02/11 07:39:05;;;;;;;;;41.00;35.00;;;;;3.44;68.60;102413.34;5077179;28;61189;-59
2022/02/11 07:41:31;;;;;;;;;32.50;28.50;;;;;3.41;68.58;102428.13;5077518;28;45945;-59
2022/02/11 07:43:56;;;;;;;;;42.00;35.25;;;;;3.37;68.97;102442.09;5077565;28;45312;-58
2022/02/11 07:46:22;;;;;;;;;43.75;33.50;;;;;3.37;68.97;102446.44;5077809;28;45276;-61
2022/02/11 07:48:47;;;;;;;;;35.50;32.00;;;;;3.38;69.27;102453.34;5076835;28;65257;-60
2022/02/11 07:51:13;;;;;;;;;24.50;23.75;;;;;3.37;69.25;102447.28;5059383;28;45395;-60
2022/02/11 07:53:38;;;;;;;;;29.00;23.00;;;;;3.40;69.67;102451.56;5076904;28;45373;-60
2022/02/11 07:56:04;;;;;;;;;29.75;22.75;;;;;3.42;69.72;102453.22;5076863;28;69423;-61
2022/02/11 07:58:29;;;;;;;;;27.00;22.25;;;;;3.45;69.86;102462.66;5077767;28;45418;-61
2022/02/11 08:00:55;;;;;;;;;27.00;23.75;;;;;3.49;70.10;102458.25;5077435;28;50381;-61
2022/02/11 08:03:22;;;;;;;;;26.75;24.00;;;;;3.52;70.29;102456.41;5076827;28;45527;-61
2022/02/11 08:05:48;;;;;;;;;25.50;20.50;;;;;3.58;70.12;102460.59;5076634;28;45340;-61
2022/02/11 08:08:13;;;;;;;;;26.50;22.50;;;;;3.63;70.59;102461.31;5077142;28;45209;-60
2022/02/11 08:10:39;;;;;;;;;34.50;27.00;;;;;3.68;70.62;102464.63;5076219;28;71206;-61
2022/02/11 08:13:04;;;;;;;;;36.75;32.25;;;;;3.76;70.82;102468.75;5077264;28;45348;-59
2022/02/11 08:15:29;;;;;;;;;34.00;28.75;;;;;3.81;70.74;102469.47;5076478;28;68612;-61
2022/02/11 08:17:55;;;;;;;;;28.75;26.75;;;;;3.86;70.66;102475.38;5076700;28;60968;-60
2022/02/11 08:20:20;;;;;;;;;38.00;32.25;;;;;3.90;70.60;102481.38;5076583;28;45272;-61
2022/02/11 08:22:46;;;;;;;;;47.00;34.00;;;;;3.95;70.93;102490.72;5077177;28;45169;-61
2022/02/11 08:25:11;;;;;;;;;43.00;34.75;;;;;4.00;71.12;102494.06;5077261;28;45260;-61
2022/02/11 08:27:37;;;;;;;;;33.00;27.25;;;;;4.06;71.05;102494.78;5076554;28;65319;-59
2022/02/11 08:30:03;;;;;;;;;34.00;25.50;;;;;4.12;71.04;102494.59;5076562;28;46309;-61
2022/02/11 08:32:29;;;;;;;;;36.00;29.75;;;;;4.18;71.23;102494.41;5077148;28;45842;-59
2022/02/11 08:34:56;;;;;;;;;41.00;29.50;;;;;4.28;71.33;102498.41;5077355;28;45465;-58
2022/02/11 08:37:23;;;;;;;;;33.50;27.50;;;;;4.36;71.19;102507.75;5093585;27;45336;-60
2022/02/11 08:39:48;;;;;;;;;30.50;30.50;;;;;4.43;71.03;102510.13;5097466;27;45438;-59
2022/02/11 08:42:13;;;;;;;;;38.75;33.25;;;;;4.49;71.09;102511.69;5096217;27;67462;-60
2022/02/11 08:44:39;;;;;;;;;36.50;29.25;;;;;4.58;71.16;102513.16;5103603;27;45491;-59
2022/02/11 08:47:04;;;;;;;;;39.50;29.25;;;;;4.67;71.00;102518.06;5116910;27;64665;-59
2022/02/11 08:49:31;;;;;;;;;28.00;28.00;;;;;4.74;71.04;102523.94;5099134;27;46090;-59
2022/02/11 08:51:56;;;;;;;;;32.75;29.00;;;;;4.85;71.00;102529.66;5117896;27;45680;-61
2022/02/11 08:54:21;;;;;;;;;23.75;23.75;;;;;4.95;71.04;102532.81;5117741;27;45803;-61
2022/02/11 08:56:48;;;;;;;;;28.00;24.00;;;;;5.08;70.49;102535.00;5117123;27;60308;-61
2022/02/11 08:59:13;;;;;;;;;28.50;24.00;;;;;5.22;70.35;102529.34;5117560;27;45464;-61
2022/02/11 09:01:39;;;;;;;;;39.50;32.25;;;;;5.42;69.93;102536.50;5112264;27;67404;-61
2022/02/11 09:04:04;;;;;;;;;31.50;26.50;;;;;5.63;69.54;102533.13;5117864;27;45462;-60
2022/02/11 09:06:29;;;;;;;;;36.75;29.75;;;;;5.87;69.06;102532.28;5117771;27;45488;-60
2022/02/11 09:08:55;;;;;;;;;36.25;26.25;;;;;6.09;68.35;102533.25;5117388;27;49344;-59
2022/02/11 09:11:21;;;;;;;;;30.75;24.50;;;;;6.34;67.94;102539.28;5116188;27;65044;-59
2022/02/11 09:13:47;;;;;;;;;31.75;25.00;;;;;6.59;67.46;102536.56;5117011;27;45400;-61
2022/02/11 09:16:12;;;;;;;;;24.25;21.50;;;;;6.85;66.76;102546.88;5117320;27;45490;-60
2022/02/11 09:18:39;;;;;;;;;31.75;24.50;;;;;7.11;66.11;102556.28;5117096;27;51914;-60
2022/02/11 09:21:05;;;;;;;;;25.75;20.75;;;;;7.35;65.25;102558.78;5117237;27;45427;-61
2022/02/11 09:23:31;;;;;;;;;30.50;23.25;;;;;7.60;64.87;102557.72;5117383;27;45361;-59
2022/02/11 09:25:56;;;;;;;;;20.50;17.00;;;;;7.82;64.18;102560.25;5117327;27;45524;-61
2022/02/11 09:28:21;;;;;;;;;31.25;25.00;;;;;8.04;63.66;102554.91;5116833;27;56350;-59
2022/02/11 09:30:47;;;;;;;;;24.50;22.50;;;;;8.26;62.85;102561.78;5116007;27;74163;-60
2022/02/11 09:33:13;;;;;;;;;25.25;25.00;;;;;8.45;62.41;102567.88;5117620;27;45302;-60
2022/02/11 09:35:38;;;;;;;;;32.00;26.25;;;;;8.67;61.79;102574.75;5117179;27;46139;-59
2022/02/11 09:38:04;;;;;;;;;28.50;24.25;;;;;8.87;61.45;102578.19;5116986;27;45385;-61
2022/02/11 09:40:29;;;;;;;;;27.75;24.00;;;;;9.04;60.57;102579.97;5117131;27;46136;-60
2022/02/11 09:42:55;;;;;;;;;37.50;30.25;;;;;9.23;60.43;102576.44;5117204;27;45382;-60
2022/02/11 09:45:21;;;;;;;;;40.75;36.25;;;;;9.42;60.11;102584.25;5098664;27;45508;-60
2022/02/11 09:47:47;;;;;;;;;34.00;29.50;;;;;9.60;59.34;102593.78;5116075;27;46352;-60
2022/02/11 09:50:12;;;;;;;;;30.75;27.00;;;;;9.78;58.79;102585.88;5116863;27;45401;-60
2022/02/11 09:52:42;;;;;;;;;26.50;25.00;;;;;9.92;58.26;102593.88;5098050;27;54530;-61
2022/02/11 09:57:51;;;;;;;;;26.25;24.25;;;;;10.25;57.49;102600.88;5116293;27;45380;-60
2022/02/11 10:00:17;;;;;;;;;24.50;20.50;;;;;10.40;56.92;102606.28;5115585;27;45373;-61
2022/02/11 10:03:18;;;;;;;;;22.50;22.50;;;;;10.62;56.99;102603.31;5116677;27;45323;-61
2022/02/11 10:05:46;;;;;;;;;27.00;19.50;;;;;10.80;55.92;102606.69;5098137;27;45200;-61
2022/02/11 10:08:11;;;;;;;;;18.25;18.00;;;;;10.95;55.28;102609.41;5116524;27;45593;-60
2022/02/11 10:10:39;;;;;;;;;23.50;19.75;;;;;11.08;55.24;102607.75;5115069;27;45633;-60
2022/02/11 10:13:05;;;;;;;;;14.00;14.00;;;;;11.21;54.30;102604.41;5116777;27;45395;-60
2022/02/11 10:15:31;;;;;;;;;18.00;13.50;;;;;11.32;54.17;102607.25;5116699;27;45535;-60
2022/02/11 10:17:57;;;;;;;;;14.50;9.00;;;;;11.41;53.29;102606.72;5116712;27;45400;-60
2022/02/11 10:20:22;;;;;;;;;16.00;14.00;;;;;11.48;53.30;102614.25;5116603;27;45329;-59
2022/02/11 10:22:48;;;;;;;;;16.75;13.50;;;;;11.58;52.91;102626.78;5115529;27;62230;-60
2022/02/11 10:25:13;;;;;;;;;16.00;16.00;;;;;11.67;53.18;102625.38;5115631;27;60582;-61
2022/02/11 10:27:38;;;;;;;;;12.75;11.25;;;;;11.80;53.09;102622.00;5115572;27;66233;-61
2022/02/11 10:30:10;;;;;;;;;13.00;9.50;;;;;11.98;52.39;102623.53;5118523;27;73073;-60
2022/02/11 10:32:49;;;;;;;;;10.00;10.00;;;;;12.12;51.84;102620.06;5120193;27;45354;-61
2022/02/11 10:35:27;;;;;;;;;13.00;10.00;;;;;12.31;51.00;102624.22;5101604;27;45361;-59
2022/02/11 10:38:13;;;;;;;;;10.25;9.00;;;;;12.43;51.25;102628.72;5119662;27;46116;-60
2022/02/11 10:40:40;;;;;;;;;15.25;12.00;;;;;12.50;50.87;102626.53;5120050;27;45425;-60
2022/02/11 10:43:29;;;;;;;;;15.75;10.50;;;;;12.61;50.42;102628.47;5101882;27;45374;-61
2022/02/11 10:45:59;;;;;;;;;12.00;12.00;;;;;12.74;50.40;102628.53;5119607;27;45364;-60
2022/02/11 10:48:24;;;;;;;;;12.25;12.25;;;;;12.86;50.08;102643.56;5101734;27;46265;-61
2022/02/11 10:50:57;;;;;;;;;16.50;11.00;;;;;12.89;49.02;102638.09;5101253;27;45345;-61
2022/02/11 10:53:29;;;;;;;;;13.25;11.75;;;;;12.82;49.03;102636.81;5104684;27;45427;-60
2022/02/11 10:55:54;;;;;;;;;13.75;8.50;;;;;12.70;47.90;102648.16;5080927;27;45455;-61
2022/02/11 10:58:20;;;;;;;;;15.75;12.00;;;;;12.58;48.94;102655.03;5097727;27;45417;-61
2022/02/11 11:00:45;;;;;;;;;12.75;9.00;;;;;12.54;49.34;102654.41;5080546;27;45617;-61
2022/02/11 11:03:11;;;;;;;;;13.50;12.75;;;;;12.61;49.42;102650.44;5098995;27;45376;-60
2022/02/11 11:05:41;;;;;;;;;14.00;12.00;;;;;12.73;49.60;102647.94;5097842;27;45349;-60
2022/02/11 11:08:08;;;;;;;;;15.00;11.00;;;;;12.85;49.30;102655.06;5080400;27;46136;-60
2022/02/11 11:10:34;;;;;;;;;8.75;5.00;;;;;12.90;47.81;102652.16;5093355;27;45911;-60
2022/02/11 11:13:00;;;;;;;;;7.00;7.00;;;;;12.81;47.85;102652.75;5088732;27;45537;-60
2022/02/11 11:15:26;;;;;;;;;14.25;10.25;;;;;12.69;48.07;102651.75;5084288;27;45366;-61
2022/02/11 11:17:52;;;;;;;;;11.75;6.00;;;;;12.51;46.89;102654.59;5069741;27;45431;-61
2022/02/11 11:20:19;;;;;;;;;15.00;9.00;;;;;12.31;46.89;102653.22;5091455;27;45326;-60
2022/02/11 11:22:45;;;;;;;;;14.25;12.25;;;;;12.21;47.85;102658.19;5068143;28;45380;-60
2022/02/11 11:25:11;;;;;;;;;4.75;4.00;;;;;12.21;48.49;102663.47;5043390;28;45429;-60
2022/02/11 11:27:42;;;;;;;;;6.75;4.00;;;;;12.34;48.24;102658.28;5076747;28;70104;-61
2022/02/11 11:30:21;;;;;;;;;6.00;3.50;;;;;12.51;47.67;102653.75;5077394;28;45843;-60
2022/02/11 11:33:12;;;;;;;;;6.50;6.00;;;;;12.64;47.23;102648.56;5078242;28;45354;-61
2022/02/11 11:35:41;;;;;;;;;6.50;4.75;;;;;12.71;46.52;102641.94;5074057;28;45431;-60
2022/02/11 11:38:16;;;;;;;;;2.25;2.25;;;;;12.79;46.73;102637.00;5077761;28;46154;-60
2022/02/11 11:41:10;;;;;;;;;6.00;5.00;;;;;12.86;46.88;102638.31;5077954;28;45849;-60
2022/02/11 11:43:51;;;;;;;;;5.25;3.25;;;;;13.02;46.82;102646.06;5077167;28;45478;-61
2022/02/11 11:46:16;;;;;;;;;2.50;2.25;;;;;13.09;46.40;102646.53;5058483;28;45568;-60
2022/02/11 11:49:00;;;;;;;;;5.00;3.00;;;;;13.18;45.71;102645.94;5077248;28;45962;-59
2022/02/11 11:51:46;;;;;;;;;3.00;3.00;;;;;13.32;45.27;102641.50;5077783;28;45363;-59
2022/02/11 11:54:17;;;;;;;;;5.25;4.25;;;;;13.40;45.20;102648.94;5063715;28;45353;-60
2022/02/11 11:56:55;;;;;;;;;4.00;4.00;;;;;13.47;45.02;102651.06;5077867;28;45590;-60
2022/02/11 11:59:45;;;;;;;;;4.00;4.00;;;;;13.56;45.48;102648.78;5077499;28;45633;-60
2022/02/11 12:02:16;;;;;;;;;4.00;4.00;;;;;13.61;44.85;102644.03;5077659;28;45344;-60
2022/02/11 12:04:41;;;;;;;;;4.50;3.75;;;;;13.60;44.43;102648.44;5077849;28;45441;-60
2022/02/11 12:07:13;;;;;;;;;3.75;3.75;;;;;13.53;44.66;102647.16;5077721;28;45477;-60
2022/02/11 12:09:41;;;;;;;;;5.50;4.00;;;;;13.44;44.46;102640.72;5077240;28;46007;-60
2022/02/11 12:12:07;;;;;;;;;2.75;2.75;;;;;13.40;44.25;102635.72;5077244;28;45824;-60
2022/02/11 12:14:34;;;;;;;;;5.50;4.00;;;;;13.35;44.10;102646.56;5077388;28;45432;-61
2022/02/11 12:17:01;;;;;;;;;5.75;4.00;;;;;13.23;44.03;102639.50;5076492;28;45428;-60
2022/02/11 12:19:27;;;;;;;;;11.50;7.00;;;;;13.13;43.91;102634.81;5077091;28;45982;-63
2022/02/11 12:21:53;;;;;;;;;5.50;4.00;;;;;13.06;44.84;102633.53;5059074;28;45351;-61
2022/02/11 12:27:21;;;;;;;;;8.50;4.00;;;;;13.07;44.68;102627.31;5077414;28;45372;-61
2022/02/11 12:30:10;;;;;;;;;6.25;3.75;;;;;13.05;44.75;102639.75;5076761;28;45308;-60
2022/02/11 12:32:40;;;;;;;;;9.50;7.00;;;;;13.00;45.06;102633.94;5067185;28;45772;-60
2022/02/11 12:35:10;;;;;;;;;8.00;5.50;;;;;12.95;44.74;102636.03;5076920;28;45304;-60
2022/02/11 12:37:36;;;;;;;;;3.75;3.00;;;;;12.83;44.55;102627.94;5077218;28;45509;-60
2022/02/11 12:40:06;;;;;;;;;6.75;4.00;;;;;12.71;44.10;102629.59;5076661;28;46579;-60
2022/02/11 12:42:32;;;;;;;;;16.50;13.00;;;;;12.54;44.22;102628.03;5077169;28;45289;-60
2022/02/11 12:44:58;;;;;;;;;10.25;5.50;;;;;12.40;43.95;102630.69;5059041;28;45467;-60
2022/02/11 12:47:24;;;;;;;;;7.00;5.25;;;;;12.27;44.67;102622.72;5077021;28;45533;-60
2022/02/11 12:49:51;;;;;;;;;4.50;3.50;;;;;12.20;44.81;102624.88;5076453;28;45987;-60
2022/02/11 12:52:24;;;;;;;;;4.00;4.00;;;;;12.21;45.53;102626.56;5076271;28;45190;-60
2022/02/11 12:55:10;;;;;;;;;4.50;4.00;;;;;12.25;45.26;102616.69;5077053;28;45244;-60
2022/02/11 12:57:36;;;;;;;;;5.50;4.75;;;;;12.30;45.09;102615.44;5076818;28;45208;-61
2022/02/11 13:00:02;;;;;;;;;4.25;3.00;;;;;12.39;45.42;102607.91;5076538;28;46150;-60
2022/02/11 13:02:31;;;;;;;;;7.75;4.00;;;;;12.53;44.86;102607.88;5076422;28;45975;-60
2022/02/11 13:05:04;;;;;;;;;8.00;8.00;;;;;12.66;44.84;102599.19;5056844;28;45465;-60
2022/02/11 13:07:29;;;;;;;;;6.25;6.00;;;;;12.72;44.44;102601.41;5056322;28;45532;-60
2022/02/11 13:09:55;;;;;;;;;8.25;4.00;;;;;12.79;43.63;102602.72;5073563;28;45456;-61
2022/02/11 13:12:20;;;;;;;;;8.00;5.75;;;;;12.80;43.63;102596.50;5074026;28;67203;-61
2022/02/11 13:14:46;;;;;;;;;6.50;5.50;;;;;12.91;43.63;102601.91;5075543;28;63115;-60
2022/02/11 13:17:11;;;;;;;;;7.00;3.75;;;;;12.97;43.53;102608.59;5075109;28;69779;-61
2022/02/11 13:19:37;;;;;;;;;6.00;4.25;;;;;12.97;42.77;102599.81;5058229;28;46977;-60
2022/02/11 13:22:02;;;;;;;;;6.00;5.00;;;;;13.01;43.29;102609.22;5079322;27;68830;-60
2022/02/11 13:24:27;;;;;;;;;9.50;6.25;;;;;13.09;42.82;102601.66;5078866;27;45382;-60
2022/02/11 13:26:53;;;;;;;;;6.75;4.00;;;;;13.15;42.88;102609.16;5095879;27;70456;-61
2022/02/11 13:29:18;;;;;;;;;6.00;5.00;;;;;13.19;42.81;102613.31;5077172;27;65151;-60
2022/02/11 13:31:45;;;;;;;;;7.50;5.50;;;;;13.33;42.78;102622.06;5095513;27;70146;-60
2022/02/11 13:34:11;;;;;;;;;6.00;5.50;;;;;13.45;42.71;102623.94;5096580;27;45626;-60
2022/02/11 13:36:36;;;;;;;;;7.50;5.00;;;;;13.56;41.79;102612.63;5096640;27;45561;-59
2022/02/11 13:39:02;;;;;;;;;4.25;4.25;;;;;13.61;42.02;102613.16;5095531;27;49513;-60
2022/02/11 13:41:29;;;;;;;;;5.50;4.00;;;;;13.59;42.01;102615.06;5096426;27;45297;-59
2022/02/11 13:43:57;;;;;;;;;8.00;5.75;;;;;13.58;41.40;102612.53;5095609;27;45444;-60
2022/02/11 13:46:27;;;;;;;;;7.00;7.00;;;;;13.52;41.57;102612.94;5071376;27;45386;-60
2022/02/11 13:49:21;;;;;;;;;5.00;3.75;;;;;13.44;41.78;102614.31;5078472;27;45522;-61
2022/02/11 13:53:01;;;;;;;;;7.00;6.00;;;;;13.35;41.91;102610.47;5058132;28;45506;-60
2022/02/11 13:55:03;;;;;;;;;9.75;8.00;;;;;13.24;42.24;102612.16;5060901;28;45455;-60
2022/02/11 13:57:29;;;;;;;;;3.75;3.00;;;;;13.15;42.36;102609.16;5058640;28;45288;-60
2022/02/11 13:59:54;;;;;;;;;5.00;5.00;;;;;13.06;41.68;102601.84;5074909;28;70057;-60
2022/02/11 14:02:21;;;;;;;;;8.50;5.75;;;;;12.97;42.09;102613.00;5075100;28;45619;-60
2022/02/11 14:04:46;;;;;;;;;12.00;7.50;;;;;12.86;42.34;102605.81;5079151;28;45441;-60
2022/02/11 14:07:15;;;;;;;;;5.25;4.00;;;;;12.71;42.29;102607.66;5061530;28;45464;-60
2022/02/11 14:09:41;;;;;;;;;7.00;6.25;;;;;12.58;42.35;102603.16;5078280;28;68158;-60
2022/02/11 14:12:25;;;;;;;;;11.00;8.25;;;;;12.48;43.13;102609.97;5061066;28;45916;-60
2022/02/11 14:14:56;;;;;;;;;7.50;4.50;;;;;12.36;43.05;102605.47;5079515;28;45360;-60
2022/02/11 14:17:22;;;;;;;;;4.50;4.50;;;;;12.25;43.30;102601.72;5060547;28;45539;-60
2022/02/11 14:19:47;;;;;;;;;6.50;5.00;;;;;12.15;43.24;102605.88;5078869;28;46222;-60
2022/02/11 14:22:12;;;;;;;;;5.75;5.75;;;;;12.06;43.49;102606.44;5078107;28;64688;-61
2022/02/11 14:24:38;;;;;;;;;6.00;5.50;;;;;11.98;43.76;102610.38;5078526;28;52989;-61
2022/02/11 14:27:03;;;;;;;;;4.00;4.00;;;;;11.90;43.44;102607.34;5078697;28;45503;-61
2022/02/11 14:29:29;;;;;;;;;6.00;4.50;;;;;11.83;43.65;102603.38;5077395;28;47386;-60
2022/02/11 14:31:54;;;;;;;;;23.00;19.50;;;;;11.73;44.02;102598.69;5076955;28;45391;-60
2022/02/11 14:34:20;;;;;;;;;12.00;10.00;;;;;11.66;44.50;102599.97;5077118;28;45528;-60
2022/02/11 14:36:45;;;;;;;;;9.50;8.50;;;;;11.58;45.04;102597.00;5074937;28;50087;-59
2022/02/11 14:39:16;;;;;;;;;24.00;17.25;;;;;11.54;44.61;102592.84;5075942;28;66824;-61
2022/02/11 14:41:49;;;;;;;;;21.75;19.00;;;;;11.48;44.66;102595.84;5077188;28;46171;-60
2022/02/11 14:44:24;;;;;;;;;20.25;17.00;;;;;11.34;45.05;102594.84;5060045;28;45470;-60
2022/02/11 14:46:51;;;;;;;;;12.25;10.00;;;;;11.26;45.77;102591.81;5060877;28;45554;-60
2022/02/11 14:49:17;;;;;;;;;7.50;7.00;;;;;11.13;45.67;102594.34;5078372;28;45985;-60
2022/02/11 14:51:43;;;;;;;;;7.25;6.00;;;;;11.05;45.96;102600.03;5078354;28;45341;-60
2022/02/11 14:54:09;;;;;;;;;8.75;7.00;;;;;10.99;45.94;102598.59;5060504;28;45344;-60
2022/02/11 14:56:35;;;;;;;;;9.00;7.75;;;;;10.95;46.70;102599.72;5077404;28;45709;-60
2022/02/11 14:59:00;;;;;;;;;9.25;6.75;;;;;10.91;46.52;102603.44;5078296;28;48832;-60
2022/02/11 15:01:25;;;;;;;;;5.25;4.25;;;;;10.84;46.68;102600.31;5077689;28;66232;-60
2022/02/11 15:03:51;;;;;;;;;8.25;7.00;;;;;10.78;46.99;102603.31;5077372;28;69294;-60
2022/02/11 15:06:16;;;;;;;;;12.00;11.00;;;;;10.72;47.43;102603.63;5078699;28;45373;-61
2022/02/11 15:08:42;;;;;;;;;13.50;11.00;;;;;10.69;47.53;102598.56;5077396;28;73003;-60
2022/02/11 15:11:07;;;;;;;;;18.00;18.00;;;;;10.67;47.69;102597.78;5077725;28;61274;-61